sensor_id;sensor_type;location;lat;lon;timestamp;pressure;altitude;pressure_sealevel;temperature;humidity
6387;BME280;3226;42.162;24.756;2023-04-06T00:02:05;99446.00;;;2.65;66.66
6387;BME280;3226;42.162;24.756;2023-04-06T00:04:34;99451.44;;;2.77;66.10
6387;BME280;3226;42.162;24.756;2023-04-06T00:07:02;99431.19;;;2.69;67.51
6387;BME280;3226;42.162;24.756;2023-04-06T00:09:30;99443.81;;;2.57;66.67
6387;BME280;3226;42.162;24.756;2023-04-06T00:11:58;99437.28;;;2.68;67.32
6387;BME280;3226;42.162;24.756;2023-04-06T00:14:26;99424.66;;;2.62;67.64
6387;BME280;3226;42.162;24.756;2023-04-06T00:16:56;99439.50;;;2.58;67.21
6387;BME280;3226;42.162;24.756;2023-04-06T00:19:24;99433.09;;;2.65;66.33
6387;BME280;3226;42.162;24.756;2023-04-06T00:21:54;99437.72;;;2.58;67.16
6387;BME280;3226;42.162;24.756;2023-04-06T00:24:22;99431.56;;;2.45;68.08
6387;BME280;3226;42.162;24.756;2023-04-06T00:26:50;99428.22;;;2.43;67.48
6387;BME280;3226;42.162;24.756;2023-04-06T00:29:18;99432.44;;;2.28;67.52
6387;BME280;3226;42.162;24.756;2023-04-06T00:31:46;99397.72;;;2.16;68.25
6387;BME280;3226;42.162;24.756;2023-04-06T00:34:14;99419.28;;;2.33;68.81
6387;BME280;3226;42.162;24.756;2023-04-06T00:36:42;99421.41;;;2.24;69.05
6387;BME280;3226;42.162;24.756;2023-04-06T00:39:12;99420.78;;;2.37;68.33
6387;BME280;3226;42.162;24.756;2023-04-06T00:41:46;99415.53;;;2.38;68.13
6387;BME280;3226;42.162;24.756;2023-04-06T00:44:14;99407.34;;;2.30;68.54
6387;BME280;3226;42.162;24.756;2023-04-06T00:46:42;99410.84;;;2.29;68.09
6387;BME280;3226;42.162;24.756;2023-04-06T00:49:10;99407.66;;;2.24;68.88
6387;BME280;3226;42.162;24.756;2023-04-06T00:51:38;99408.81;;;2.18;69.13
6387;BME280;3226;42.162;24.756;2023-04-06T00:54:06;99410.84;;;2.11;69.17
6387;BME280;3226;42.162;24.756;2023-04-06T00:56:36;99411.97;;;2.23;69.03
6387;BME280;3226;42.162;24.756;2023-04-06T00:59:04;99407.13;;;2.35;68.91
6387;BME280;3226;42.162;24.756;2023-04-06T01:01:32;99404.69;;;2.31;68.15
6387;BME280;3226;42.162;24.756;2023-04-06T01:04:01;99407.56;;;2.25;68.29
6387;BME280;3226;42.162;24.756;2023-04-06T01:06:30;99401.75;;;2.22;68.75
6387;BME280;3226;42.162;24.756;2023-04-06T01:08:58;99402.06;;;2.15;69.09
6387;BME280;3226;42.162;24.756;2023-04-06T01:11:26;99403.91;;;2.13;70.27
6387;BME280;3226;42.162;24.756;2023-04-06T01:13:55;99393.56;;;2.13;68.82
6387;BME280;3226;42.162;24.756;2023-04-06T01:16:24;99399.66;;;2.12;69.62
6387;BME280;3226;42.162;24.756;2023-04-06T01:18:52;99395.38;;;2.11;69.02
6387;BME280;3226;42.162;24.756;2023-04-06T01:21:20;99396.28;;;2.10;69.23
6387;BME280;3226;42.162;24.756;2023-04-06T01:23:49;99391.53;;;2.02;69.51
6387;BME280;3226;42.162;24.756;2023-04-06T01:26:17;99390.13;;;2.13;69.00
6387;BME280;3226;42.162;24.756;2023-04-06T01:28:45;99381.56;;;2.12;68.88
6387;BME280;3226;42.162;24.756;2023-04-06T01:31:13;99358.50;;;1.92;68.88
6387;BME280;3226;42.162;24.756;2023-04-06T01:33:41;99384.09;;;1.96;69.35
6387;BME280;3226;42.162;24.756;2023-04-06T01:36:09;99383.44;;;2.09;68.92
6387;BME280;3226;42.162;24.756;2023-04-06T01:38:37;99376.63;;;2.08;69.58
6387;BME280;3226;42.162;24.756;2023-04-06T01:41:07;99375.59;;;2.10;68.98
6387;BME280;3226;42.162;24.756;2023-04-06T01:43:35;99346.41;;;1.92;68.55
6387;BME280;3226;42.162;24.756;2023-04-06T01:46:03;99368.28;;;2.02;69.87
6387;BME280;3226;42.162;24.756;2023-04-06T01:48:31;99362.38;;;1.83;69.89
6387;BME280;3226;42.162;24.756;2023-04-06T01:50:59;99361.56;;;1.82;70.51
6387;BME280;3226;42.162;24.756;2023-04-06T01:53:28;99370.81;;;1.86;70.98
6387;BME280;3226;42.162;24.756;2023-04-06T01:55:56;99368.75;;;1.76;70.69
6387;BME280;3226;42.162;24.756;2023-04-06T01:58:25;99360.47;;;1.86;70.84
6387;BME280;3226;42.162;24.756;2023-04-06T02:00:53;99352.72;;;1.86;71.25
6387;BME280;3226;42.162;24.756;2023-04-06T02:03:21;99350.25;;;1.67;71.04
6387;BME280;3226;42.162;24.756;2023-04-06T02:05:49;99343.69;;;1.78;70.33
6387;BME280;3226;42.162;24.756;2023-04-06T02:08:17;99352.34;;;1.77;70.69
6387;BME280;3226;42.162;24.756;2023-04-06T02:10:45;99351.75;;;1.71;70.30
6387;BME280;3226;42.162;24.756;2023-04-06T02:13:13;99346.22;;;1.79;70.51
6387;BME280;3226;42.162;24.756;2023-04-06T02:15:42;99349.47;;;1.83;69.71
6387;BME280;3226;42.162;24.756;2023-04-06T02:18:10;99356.31;;;1.66;69.86
6387;BME280;3226;42.162;24.756;2023-04-06T02:20:38;99359.34;;;1.75;69.54
6387;BME280;3226;42.162;24.756;2023-04-06T02:23:07;99347.03;;;1.80;70.05
6387;BME280;3226;42.162;24.756;2023-04-06T02:25:35;99356.53;;;1.79;69.29
6387;BME280;3226;42.162;24.756;2023-04-06T02:28:03;99355.47;;;1.83;69.61
6387;BME280;3226;42.162;24.756;2023-04-06T02:30:31;99360.16;;;1.93;69.64
6387;BME280;3226;42.162;24.756;2023-04-06T02:33:01;99358.56;;;1.90;69.36
6387;BME280;3226;42.162;24.756;2023-04-06T02:35:30;99357.41;;;1.96;69.75
6387;BME280;3226;42.162;24.756;2023-04-06T02:37:58;99369.53;;;1.78;70.66
6387;BME280;3226;42.162;24.756;2023-04-06T02:40:26;99368.59;;;1.79;70.05
6387;BME280;3226;42.162;24.756;2023-04-06T02:42:54;99365.34;;;1.75;70.77
6387;BME280;3226;42.162;24.756;2023-04-06T02:45:22;99364.50;;;1.75;70.99
6387;BME280;3226;42.162;24.756;2023-04-06T02:47:51;99372.84;;;1.80;70.56
6387;BME280;3226;42.162;24.756;2023-04-06T02:50:20;99373.63;;;1.82;70.42
6387;BME280;3226;42.162;24.756;2023-04-06T02:52:48;99371.81;;;1.66;72.17
6387;BME280;3226;42.162;24.756;2023-04-06T02:55:16;99356.66;;;1.60;71.68
6387;BME280;3226;42.162;24.756;2023-04-06T02:57:47;99366.59;;;1.50;72.36
6387;BME280;3226;42.162;24.756;2023-04-06T03:00:16;99365.41;;;1.56;72.25
6387;BME280;3226;42.162;24.756;2023-04-06T03:02:44;99365.66;;;1.51;72.90
6387;BME280;3226;42.162;24.756;2023-04-06T03:05:12;99366.88;;;1.44;72.65
6387;BME280;3226;42.162;24.756;2023-04-06T03:07:41;99366.59;;;1.50;73.10
6387;BME280;3226;42.162;24.756;2023-04-06T03:10:10;99361.56;;;1.47;72.11
6387;BME280;3226;42.162;24.756;2023-04-06T03:12:38;99362.34;;;1.49;72.28
6387;BME280;3226;42.162;24.756;2023-04-06T03:15:09;99364.91;;;1.49;72.58
6387;BME280;3226;42.162;24.756;2023-04-06T03:17:37;99372.56;;;1.51;71.99
6387;BME280;3226;42.162;24.756;2023-04-06T03:20:06;99365.41;;;1.56;72.52
6387;BME280;3226;42.162;24.756;2023-04-06T03:22:34;99364.75;;;1.52;72.93
6387;BME280;3226;42.162;24.756;2023-04-06T03:25:04;99359.44;;;1.55;71.93
6387;BME280;3226;42.162;24.756;2023-04-06T03:27:32;99367.25;;;1.54;71.94
6387;BME280;3226;42.162;24.756;2023-04-06T03:30:00;99367.09;;;1.57;72.13
6387;BME280;3226;42.162;24.756;2023-04-06T03:32:28;99365.28;;;1.59;72.05
6387;BME280;3226;42.162;24.756;2023-04-06T03:34:56;99364.91;;;1.49;72.39
6387;BME280;3226;42.162;24.756;2023-04-06T03:37:24;99367.09;;;1.57;72.01
6387;BME280;3226;42.162;24.756;2023-04-06T03:39:52;99360.41;;;1.53;72.41
6387;BME280;3226;42.162;24.756;2023-04-06T03:42:21;99361.09;;;1.39;72.22
6387;BME280;3226;42.162;24.756;2023-04-06T03:44:49;99369.53;;;1.42;73.10
6387;BME280;3226;42.162;24.756;2023-04-06T03:47:17;99365.81;;;1.48;73.33
6387;BME280;3226;42.162;24.756;2023-04-06T03:49:46;99367.09;;;1.57;72.49
6387;BME280;3226;42.162;24.756;2023-04-06T03:52:14;99364.97;;;1.48;73.01
6387;BME280;3226;42.162;24.756;2023-04-06T03:54:42;99362.09;;;1.54;73.76
6387;BME280;3226;42.162;24.756;2023-04-06T03:57:10;99361.81;;;1.60;73.47
6387;BME280;3226;42.162;24.756;2023-04-06T03:59:39;99356.66;;;1.60;73.50
6387;BME280;3226;42.162;24.756;2023-04-06T04:02:07;99360.47;;;1.69;72.85
6387;BME280;3226;42.162;24.756;2023-04-06T04:04:35;99365.88;;;1.82;72.68
6387;BME280;3226;42.162;24.756;2023-04-06T04:07:03;99360.16;;;1.93;71.39
6387;BME280;3226;42.162;24.756;2023-04-06T04:09:31;99334.44;;;1.73;71.42
6387;BME280;3226;42.162;24.756;2023-04-06T04:11:59;99354.44;;;2.04;71.46
6387;BME280;3226;42.162;24.756;2023-04-06T04:14:27;99357.78;;;2.06;71.17
6387;BME280;3226;42.162;24.756;2023-04-06T04:16:56;99341.38;;;2.07;71.11
6387;BME280;3226;42.162;24.756;2023-04-06T04:19:25;99351.03;;;2.19;70.14
6387;BME280;3226;42.162;24.756;2023-04-06T04:21:53;99347.53;;;2.20;69.77
6387;BME280;3226;42.162;24.756;2023-04-06T04:24:20;99335.31;;;2.24;69.67
6387;BME280;3226;42.162;24.756;2023-04-06T04:26:48;99362.75;;;2.42;69.91
6387;BME280;3226;42.162;24.756;2023-04-06T04:29:17;99356.44;;;2.48;68.95
6387;BME280;3226;42.162;24.756;2023-04-06T04:31:47;99373.84;;;2.60;68.29
6387;BME280;3226;42.162;24.756;2023-04-06T04:34:17;99368.09;;;2.71;68.02
6387;BME280;3226;42.162;24.756;2023-04-06T04:36:46;99362.88;;;2.73;68.66
6387;BME280;3226;42.162;24.756;2023-04-06T04:39:14;99363.34;;;2.64;68.15
6387;BME280;3226;42.162;24.756;2023-04-06T04:41:42;99359.59;;;2.69;67.89
6387;BME280;3226;42.162;24.756;2023-04-06T04:44:10;99358.16;;;2.80;68.12
6387;BME280;3226;42.162;24.756;2023-04-06T04:46:38;99369.44;;;2.79;67.22
6387;BME280;3226;42.162;24.756;2023-04-06T04:49:08;99358.91;;;2.82;67.52
6387;BME280;3226;42.162;24.756;2023-04-06T04:51:37;99360.69;;;2.81;67.89
6387;BME280;3226;42.162;24.756;2023-04-06T04:54:05;99358.34;;;2.77;68.02
6387;BME280;3226;42.162;24.756;2023-04-06T04:56:33;99353.00;;;2.80;68.01
6387;BME280;3226;42.162;24.756;2023-04-06T04:59:01;99361.50;;;2.98;66.83
6387;BME280;3226;42.162;24.756;2023-04-06T05:01:29;99341.13;;;2.92;65.59
6387;BME280;3226;42.162;24.756;2023-04-06T05:04:13;99360.31;;;3.03;66.46
6387;BME280;3226;42.162;24.756;2023-04-06T05:06:42;99356.75;;;3.06;65.77
6387;BME280;3226;42.162;24.756;2023-04-06T05:09:10;99338.72;;;2.88;66.25
6387;BME280;3226;42.162;24.756;2023-04-06T05:11:38;99358.97;;;3.12;67.25
6387;BME280;3226;42.162;24.756;2023-04-06T05:14:06;99357.63;;;3.21;66.65
6387;BME280;3226;42.162;24.756;2023-04-06T05:16:34;99362.13;;;3.17;66.87
6387;BME280;3226;42.162;24.756;2023-04-06T05:19:02;99364.59;;;3.35;66.04
6387;BME280;3226;42.162;24.756;2023-04-06T05:21:30;99361.09;;;3.36;66.77
6387;BME280;3226;42.162;24.756;2023-04-06T05:24:00;99319.28;;;3.28;66.35
6387;BME280;3226;42.162;24.756;2023-04-06T05:26:29;99347.81;;;3.57;67.04
6387;BME280;3226;42.162;24.756;2023-04-06T05:28:57;99328.22;;;3.53;64.69
6387;BME280;3226;42.162;24.756;2023-04-06T05:31:25;99347.13;;;3.84;64.58
6387;BME280;3226;42.162;24.756;2023-04-06T05:33:53;99343.78;;;3.96;64.54
6387;BME280;3226;42.162;24.756;2023-04-06T05:36:21;99350.66;;;3.97;62.79
6387;BME280;3226;42.162;24.756;2023-04-06T05:38:49;99345.75;;;4.07;62.75
6387;BME280;3226;42.162;24.756;2023-04-06T05:41:20;99283.28;;;3.83;61.95
6387;BME280;3226;42.162;24.756;2023-04-06T05:43:48;99343.69;;;4.41;62.96
6387;BME280;3226;42.162;24.756;2023-04-06T05:46:16;99337.56;;;4.42;61.64
6387;BME280;3226;42.162;24.756;2023-04-06T05:48:44;99342.97;;;4.67;59.92
6387;BME280;3226;42.162;24.756;2023-04-06T05:51:13;99338.44;;;4.70;60.51
6387;BME280;3226;42.162;24.756;2023-04-06T05:53:41;99338.31;;;4.86;59.84
6387;BME280;3226;42.162;24.756;2023-04-06T05:56:09;99335.06;;;5.23;58.56
6387;BME280;3226;42.162;24.756;2023-04-06T05:58:38;99316.75;;;5.78;56.66
6387;BME280;3226;42.162;24.756;2023-04-06T06:01:10;99326.41;;;6.28;54.99
6387;BME280;3226;42.162;24.756;2023-04-06T06:03:38;99331.31;;;6.19;53.92
6387;BME280;3226;42.162;24.756;2023-04-06T06:06:06;99326.22;;;5.92;54.30
6387;BME280;3226;42.162;24.756;2023-04-06T06:08:34;99328.03;;;5.38;56.24
6387;BME280;3226;42.162;24.756;2023-04-06T06:11:02;99323.22;;;5.19;56.77
6387;BME280;3226;42.162;24.756;2023-04-06T06:13:30;99321.88;;;5.67;57.56
6387;BME280;3226;42.162;24.756;2023-04-06T06:16:00;99304.69;;;7.02;53.48
6387;BME280;3226;42.162;24.756;2023-04-06T06:18:31;99305.59;;;8.06;50.02
6387;BME280;3226;42.162;24.756;2023-04-06T06:21:00;99322.75;;;7.75;49.32
6387;BME280;3226;42.162;24.756;2023-04-06T06:23:28;99322.41;;;7.91;49.23
6387;BME280;3226;42.162;24.756;2023-04-06T06:25:56;99307.84;;;7.88;49.89
6387;BME280;3226;42.162;24.756;2023-04-06T06:28:24;99314.81;;;7.76;50.68
6387;BME280;3226;42.162;24.756;2023-04-06T06:30:52;99312.88;;;7.56;50.70
6387;BME280;3226;42.162;24.756;2023-04-06T06:33:22;99293.59;;;7.70;49.91
6387;BME280;3226;42.162;24.756;2023-04-06T06:35:50;99327.16;;;6.91;49.62
6387;BME280;3226;42.162;24.756;2023-04-06T06:38:18;99320.06;;;6.93;51.09
6387;BME280;3226;42.162;24.756;2023-04-06T06:40:49;99332.13;;;7.30;51.78
6387;BME280;3226;42.162;24.756;2023-04-06T06:43:17;99331.34;;;7.52;50.55
6387;BME280;3226;42.162;24.756;2023-04-06T06:45:45;99315.09;;;7.96;50.20
6387;BME280;3226;42.162;24.756;2023-04-06T06:48:13;99324.56;;;8.31;49.10
6387;BME280;3226;42.162;24.756;2023-04-06T06:50:43;99318.41;;;7.98;48.27
6387;BME280;3226;42.162;24.756;2023-04-06T06:53:11;99312.78;;;8.60;47.95
6387;BME280;3226;42.162;24.756;2023-04-06T06:55:39;99327.06;;;9.21;46.06
6387;BME280;3226;42.162;24.756;2023-04-06T06:58:07;99319.06;;;8.68;46.54
6387;BME280;3226;42.162;24.756;2023-04-06T07:00:35;99320.63;;;8.92;45.85
6387;BME280;3226;42.162;24.756;2023-04-06T07:03:03;99320.22;;;9.08;44.93
6387;BME280;3226;42.162;24.756;2023-04-06T07:05:31;99313.22;;;9.51;45.01
6387;BME280;3226;42.162;24.756;2023-04-06T07:08:01;99315.31;;;9.58;44.37
6387;BME280;3226;42.162;24.756;2023-04-06T07:10:29;99316.53;;;10.06;43.59
6387;BME280;3226;42.162;24.756;2023-04-06T07:12:57;99309.84;;;9.61;43.82
6387;BME280;3226;42.162;24.756;2023-04-06T07:15:25;99303.91;;;9.59;43.80
6387;BME280;3226;42.162;24.756;2023-04-06T07:17:53;99318.34;;;9.84;44.24
6387;BME280;3226;42.162;24.756;2023-04-06T07:20:22;99317.00;;;9.90;44.46
6387;BME280;3226;42.162;24.756;2023-04-06T07:22:50;99312.53;;;10.43;43.84
6387;BME280;3226;42.162;24.756;2023-04-06T07:25:19;99315.75;;;10.25;42.18
6387;BME280;3226;42.162;24.756;2023-04-06T07:27:51;99312.06;;;10.27;42.83
6387;BME280;3226;42.162;24.756;2023-04-06T07:30:19;99296.72;;;10.54;42.49
6387;BME280;3226;42.162;24.756;2023-04-06T07:32:48;99318.41;;;11.05;41.27
6387;BME280;3226;42.162;24.756;2023-04-06T07:35:16;99319.22;;;11.25;41.03
6387;BME280;3226;42.162;24.756;2023-04-06T07:37:44;99315.47;;;11.48;40.10
6387;BME280;3226;42.162;24.756;2023-04-06T07:40:13;99311.75;;;11.11;41.85
6387;BME280;3226;42.162;24.756;2023-04-06T07:42:42;99319.78;;;11.19;42.46
6387;BME280;3226;42.162;24.756;2023-04-06T07:45:11;99318.53;;;11.04;43.37
6387;BME280;3226;42.162;24.756;2023-04-06T07:47:39;99315.34;;;11.10;42.03
6387;BME280;3226;42.162;24.756;2023-04-06T07:50:08;99321.56;;;11.09;42.54
6387;BME280;3226;42.162;24.756;2023-04-06T07:52:36;99325.03;;;11.09;42.69
6387;BME280;3226;42.162;24.756;2023-04-06T07:55:05;99307.47;;;11.39;42.56
6387;BME280;3226;42.162;24.756;2023-04-06T07:57:33;99312.34;;;10.34;43.38
6387;BME280;3226;42.162;24.756;2023-04-06T08:00:04;99317.69;;;11.52;41.65
6387;BME280;3226;42.162;24.756;2023-04-06T08:02:32;99306.78;;;10.59;43.14
6387;BME280;3226;42.162;24.756;2023-04-06T08:05:00;99306.25;;;10.65;44.65
6387;BME280;3226;42.162;24.756;2023-04-06T08:07:28;99315.63;;;11.07;43.52
6387;BME280;3226;42.162;24.756;2023-04-06T08:09:56;99296.72;;;11.13;43.16
6387;BME280;3226;42.162;24.756;2023-04-06T08:12:24;99307.25;;;11.03;41.65
6387;BME280;3226;42.162;24.756;2023-04-06T08:14:52;99305.84;;;11.38;42.79
6387;BME280;3226;42.162;24.756;2023-04-06T08:17:22;99310.19;;;11.67;41.01
6387;BME280;3226;42.162;24.756;2023-04-06T08:19:50;99297.09;;;12.05;40.87
6387;BME280;3226;42.162;24.756;2023-04-06T08:22:18;99299.53;;;11.69;41.12
6387;BME280;3226;42.162;24.756;2023-04-06T08:24:46;99300.69;;;12.78;39.29
6387;BME280;3226;42.162;24.756;2023-04-06T08:27:14;99295.25;;;13.61;37.15
6387;BME280;3226;42.162;24.756;2023-04-06T08:29:42;99303.66;;;13.20;39.10
6387;BME280;3226;42.162;24.756;2023-04-06T08:32:10;99304.38;;;13.48;39.36
6387;BME280;3226;42.162;24.756;2023-04-06T08:34:41;99310.53;;;12.94;38.39
6387;BME280;3226;42.162;24.756;2023-04-06T08:37:09;99282.66;;;12.83;38.05
6387;BME280;3226;42.162;24.756;2023-04-06T08:39:37;99290.66;;;12.18;40.44
6387;BME280;3226;42.162;24.756;2023-04-06T08:42:11;99283.06;;;11.86;39.98
6387;BME280;3226;42.162;24.756;2023-04-06T08:44:41;99277.50;;;12.27;40.28
6387;BME280;3226;42.162;24.756;2023-04-06T08:47:09;99279.66;;;11.66;40.70
6387;BME280;3226;42.162;24.756;2023-04-06T08:49:38;99285.25;;;11.53;41.74
6387;BME280;3226;42.162;24.756;2023-04-06T08:52:08;99282.69;;;12.09;40.78
6387;BME280;3226;42.162;24.756;2023-04-06T08:54:36;99286.97;;;12.10;41.39
6387;BME280;3226;42.162;24.756;2023-04-06T08:57:05;99269.00;;;12.15;42.26
6387;BME280;3226;42.162;24.756;2023-04-06T08:59:34;99267.50;;;12.59;40.27
6387;BME280;3226;42.162;24.756;2023-04-06T09:02:04;99264.56;;;12.98;40.39
6387;BME280;3226;42.162;24.756;2023-04-06T09:04:33;99260.31;;;11.10;40.75
6387;BME280;3226;42.162;24.756;2023-04-06T09:07:02;99254.41;;;12.31;40.42
6387;BME280;3226;42.162;24.756;2023-04-06T09:09:31;99255.84;;;12.43;39.77
6387;BME280;3226;42.162;24.756;2023-04-06T09:11:59;99252.53;;;12.78;39.20
6387;BME280;3226;42.162;24.756;2023-04-06T09:14:35;99254.34;;;12.95;40.08
6387;BME280;3226;42.162;24.756;2023-04-06T09:17:04;99243.84;;;12.59;41.10
6387;BME280;3226;42.162;24.756;2023-04-06T09:19:33;99242.94;;;12.04;39.68
6387;BME280;3226;42.162;24.756;2023-04-06T09:22:02;99251.06;;;12.93;38.75
6387;BME280;3226;42.162;24.756;2023-04-06T09:24:42;99238.47;;;13.50;37.71
6387;BME280;3226;42.162;24.756;2023-04-06T09:27:10;99243.03;;;13.74;35.93
6387;BME280;3226;42.162;24.756;2023-04-06T09:29:40;99222.09;;;13.38;38.00
6387;BME280;3226;42.162;24.756;2023-04-06T09:32:09;99226.16;;;13.06;37.40
6387;BME280;3226;42.162;24.756;2023-04-06T09:34:38;99207.16;;;13.12;37.35
6387;BME280;3226;42.162;24.756;2023-04-06T09:37:13;99229.03;;;14.08;35.21
6387;BME280;3226;42.162;24.756;2023-04-06T09:39:43;99225.63;;;13.81;36.26
6387;BME280;3226;42.162;24.756;2023-04-06T09:42:12;99228.03;;;14.01;35.99
6387;BME280;3226;42.162;24.756;2023-04-06T09:44:40;99225.59;;;13.73;36.99
6387;BME280;3226;42.162;24.756;2023-04-06T09:47:08;99220.47;;;13.71;38.25
6387;BME280;3226;42.162;24.756;2023-04-06T09:49:36;99217.94;;;13.53;37.58
6387;BME280;3226;42.162;24.756;2023-04-06T09:52:06;99223.94;;;12.75;37.61
6387;BME280;3226;42.162;24.756;2023-04-06T09:54:35;99215.38;;;12.18;40.30
6387;BME280;3226;42.162;24.756;2023-04-06T09:57:08;99212.88;;;13.34;39.19
6387;BME280;3226;42.162;24.756;2023-04-06T09:59:48;99217.91;;;13.00;39.40
6387;BME280;3226;42.162;24.756;2023-04-06T10:02:24;99223.81;;;12.58;39.61
6387;BME280;3226;42.162;24.756;2023-04-06T10:04:59;99208.72;;;12.42;40.39
6387;BME280;3226;42.162;24.756;2023-04-06T10:07:30;99208.72;;;11.68;41.08
6387;BME280;3226;42.162;24.756;2023-04-06T10:09:59;99202.34;;;11.70;40.42
6387;BME280;3226;42.162;24.756;2023-04-06T10:12:31;99205.13;;;11.69;41.28
6387;BME280;3226;42.162;24.756;2023-04-06T10:14:59;99190.97;;;11.80;41.06
6387;BME280;3226;42.162;24.756;2023-04-06T10:17:27;99198.22;;;12.24;42.10
6387;BME280;3226;42.162;24.756;2023-04-06T10:20:01;99194.41;;;12.36;39.48
6387;BME280;3226;42.162;24.756;2023-04-06T10:22:36;99195.41;;;12.07;41.25
6387;BME280;3226;42.162;24.756;2023-04-06T10:25:07;99196.59;;;12.41;41.47
6387;BME280;3226;42.162;24.756;2023-04-06T10:27:37;99188.41;;;12.44;40.59
6387;BME280;3226;42.162;24.756;2023-04-06T10:30:06;99189.56;;;12.68;40.80
6387;BME280;3226;42.162;24.756;2023-04-06T10:32:35;99185.53;;;12.73;41.84
6387;BME280;3226;42.162;24.756;2023-04-06T10:35:08;99177.19;;;12.78;40.19
6387;BME280;3226;42.162;24.756;2023-04-06T10:37:50;99173.34;;;11.72;40.16
6387;BME280;3226;42.162;24.756;2023-04-06T10:40:21;99173.81;;;11.67;41.26
6387;BME280;3226;42.162;24.756;2023-04-06T10:42:51;99163.88;;;11.89;42.05
6387;BME280;3226;42.162;24.756;2023-04-06T10:45:20;99167.13;;;12.01;42.54
6387;BME280;3226;42.162;24.756;2023-04-06T10:47:49;99162.19;;;12.52;40.62
6387;BME280;3226;42.162;24.756;2023-04-06T10:50:17;99168.75;;;12.48;40.22
6387;BME280;3226;42.162;24.756;2023-04-06T10:52:46;99175.06;;;12.82;39.00
6387;BME280;3226;42.162;24.756;2023-04-06T10:55:15;99173.41;;;13.07;38.55
6387;BME280;3226;42.162;24.756;2023-04-06T10:57:46;99158.34;;;12.65;38.29
6387;BME280;3226;42.162;24.756;2023-04-06T11:00:16;99162.25;;;12.61;38.52
6387;BME280;3226;42.162;24.756;2023-04-06T11:02:45;99149.50;;;12.66;40.15
6387;BME280;3226;42.162;24.756;2023-04-06T11:05:14;99152.63;;;12.25;38.48
6387;BME280;3226;42.162;24.756;2023-04-06T11:07:44;99158.00;;;12.41;37.43
6387;BME280;3226;42.162;24.756;2023-04-06T11:10:12;99143.06;;;12.60;38.79
6387;BME280;3226;42.162;24.756;2023-04-06T11:12:44;99141.63;;;12.66;38.52
6387;BME280;3226;42.162;24.756;2023-04-06T11:15:12;99121.47;;;12.48;40.97
6387;BME280;3226;42.162;24.756;2023-04-06T11:17:42;99123.44;;;12.10;38.25
6387;BME280;3226;42.162;24.756;2023-04-06T11:20:12;99142.56;;;12.02;38.80
6387;BME280;3226;42.162;24.756;2023-04-06T11:22:48;99141.44;;;12.23;40.49
6387;BME280;3226;42.162;24.756;2023-04-06T11:25:17;99143.63;;;11.99;39.07
6387;BME280;3226;42.162;24.756;2023-04-06T11:27:46;99143.47;;;12.29;40.00
6387;BME280;3226;42.162;24.756;2023-04-06T11:30:15;99131.84;;;11.67;40.66
6387;BME280;3226;42.162;24.756;2023-04-06T11:32:45;99110.16;;;12.11;41.66
6387;BME280;3226;42.162;24.756;2023-04-06T11:35:20;99128.38;;;12.49;41.45
6387;BME280;3226;42.162;24.756;2023-04-06T11:37:48;99121.59;;;12.47;39.71
6387;BME280;3226;42.162;24.756;2023-04-06T11:40:20;99127.38;;;12.68;40.26
6387;BME280;3226;42.162;24.756;2023-04-06T11:42:52;99120.06;;;12.80;38.80
6387;BME280;3226;42.162;24.756;2023-04-06T11:45:22;99111.69;;;12.85;37.41
6387;BME280;3226;42.162;24.756;2023-04-06T11:47:57;99125.16;;;12.37;37.47
6387;BME280;3226;42.162;24.756;2023-04-06T11:50:32;99124.31;;;12.37;39.23
6387;BME280;3226;42.162;24.756;2023-04-06T11:53:01;99121.56;;;12.38;39.30
6387;BME280;3226;42.162;24.756;2023-04-06T11:55:36;99123.28;;;12.29;39.36
6387;BME280;3226;42.162;24.756;2023-04-06T11:58:05;99111.25;;;11.91;39.74
6387;BME280;3226;42.162;24.756;2023-04-06T12:00:33;99122.53;;;12.01;38.01
6387;BME280;3226;42.162;24.756;2023-04-06T12:03:05;99121.78;;;12.27;39.02
6387;BME280;3226;42.162;24.756;2023-04-06T12:05:33;99123.94;;;12.13;38.42
6387;BME280;3226;42.162;24.756;2023-04-06T12:08:01;99122.13;;;11.96;38.57
6387;BME280;3226;42.162;24.756;2023-04-06T12:10:29;99114.91;;;11.80;40.39
6387;BME280;3226;42.162;24.756;2023-04-06T12:12:58;99120.03;;;12.18;39.46
6387;BME280;3226;42.162;24.756;2023-04-06T12:15:26;99110.91;;;12.22;39.58
6387;BME280;3226;42.162;24.756;2023-04-06T12:17:54;99109.41;;;12.37;40.78
6387;BME280;3226;42.162;24.756;2023-04-06T12:20:23;99119.88;;;12.55;38.91
6387;BME280;3226;42.162;24.756;2023-04-06T12:22:53;99115.88;;;12.25;38.96
6387;BME280;3226;42.162;24.756;2023-04-06T12:25:21;99122.75;;;12.08;38.68
6387;BME280;3226;42.162;24.756;2023-04-06T12:27:49;99096.03;;;11.48;39.63
6387;BME280;3226;42.162;24.756;2023-04-06T12:30:17;99107.78;;;11.72;41.23
6387;BME280;3226;42.162;24.756;2023-04-06T12:32:45;99109.47;;;12.09;40.21
6387;BME280;3226;42.162;24.756;2023-04-06T12:35:16;99107.59;;;12.20;40.63
6387;BME280;3226;42.162;24.756;2023-04-06T12:37:46;99104.56;;;12.51;39.98
6387;BME280;3226;42.162;24.756;2023-04-06T12:40:14;99106.84;;;12.09;39.14
6387;BME280;3226;42.162;24.756;2023-04-06T12:42:42;99103.72;;;12.24;40.06
6387;BME280;3226;42.162;24.756;2023-04-06T12:45:10;99110.56;;;12.61;38.47
6387;BME280;3226;42.162;24.756;2023-04-06T12:47:39;99113.06;;;12.71;38.36
6387;BME280;3226;42.162;24.756;2023-04-06T12:50:07;99097.56;;;12.86;37.89
6387;BME280;3226;42.162;24.756;2023-04-06T12:52:35;99096.56;;;12.79;37.93
6387;BME280;3226;42.162;24.756;2023-04-06T12:55:06;99110.75;;;12.23;38.37
6387;BME280;3226;42.162;24.756;2023-04-06T12:57:34;99109.41;;;12.01;38.83
6387;BME280;3226;42.162;24.756;2023-04-06T13:00:04;99098.22;;;11.53;39.56
6387;BME280;3226;42.162;24.756;2023-04-06T13:02:35;99097.09;;;12.20;39.81
6387;BME280;3226;42.162;24.756;2023-04-06T13:05:04;99102.69;;;12.61;39.26
6387;BME280;3226;42.162;24.756;2023-04-06T13:07:32;99103.31;;;12.81;38.87
6387;BME280;3226;42.162;24.756;2023-04-06T13:10:00;99099.00;;;12.54;38.05
6387;BME280;3226;42.162;24.756;2023-04-06T13:12:30;99091.94;;;12.10;38.97
6387;BME280;3226;42.162;24.756;2023-04-06T13:14:58;99077.78;;;11.28;39.52
6387;BME280;3226;42.162;24.756;2023-04-06T13:17:27;99092.25;;;11.61;40.65
6387;BME280;3226;42.162;24.756;2023-04-06T13:19:55;99090.31;;;11.63;40.73
6387;BME280;3226;42.162;24.756;2023-04-06T13:22:23;99093.25;;;11.78;39.89
6387;BME280;3226;42.162;24.756;2023-04-06T13:24:51;99092.00;;;11.54;40.36
6387;BME280;3226;42.162;24.756;2023-04-06T13:27:19;99090.75;;;11.76;40.26